createdAt,value
2023-05-04T00:02:27.106Z,97652.45
2023-05-04T00:04:59.506Z,97650.85
2023-05-04T00:07:31.160Z,97650.91
2023-05-04T00:10:03.814Z,97649.67
2023-05-04T00:12:35.562Z,97652.24
2023-05-04T00:15:09.225Z,97647.04
2023-05-04T00:17:40.271Z,97639.19
2023-05-04T00:20:14.222Z,97630.11
2023-05-04T00:22:46.447Z,97630.30
2023-05-04T00:25:16.190Z,97627.81
2023-05-04T00:27:47.010Z,97623.00
2023-05-04T00:30:18.654Z,97618.04
2023-05-04T00:32:50.556Z,97620.87
2023-05-04T00:35:23.518Z,97628.02
2023-05-04T00:37:55.263Z,97627.48
2023-05-04T00:40:26.524Z,97624.11
2023-05-04T00:42:58.249Z,97621.16
2023-05-04T00:45:28.838Z,97618.94
2023-05-04T00:48:00.402Z,97615.94
2023-05-04T00:50:32.601Z,97615.71
2023-05-04T00:53:10.817Z,97608.89
2023-05-04T00:55:45.615Z,97606.33
2023-05-04T00:58:17.022Z,97602.94
2023-05-04T01:00:48.470Z,97600.04
2023-05-04T01:03:23.856Z,97598.95
2023-05-04T01:06:17.596Z,97596.91
2023-05-04T01:08:58.801Z,97591.52
2023-05-04T01:11:45.476Z,97591.59
2023-05-04T01:14:19.567Z,97591.98
2023-05-04T01:16:58.863Z,97590.76
2023-05-04T01:19:33.036Z,97591.33
2023-05-04T01:22:09.504Z,97595.30
2023-05-04T01:24:47.170Z,97603.33
2023-05-04T01:27:30.507Z,97609.14
2023-05-04T01:30:27.585Z,97613.59
2023-05-04T01:33:03.529Z,97618.53
2023-05-04T01:35:40.116Z,97617.59
2023-05-04T01:38:10.441Z,97612.56
2023-05-04T01:40:40.310Z,97612.40
2023-05-04T01:43:17.395Z,97613.68
2023-05-04T01:45:54.642Z,97610.64
2023-05-04T01:48:28.779Z,97606.51
2023-05-04T01:51:03.426Z,97598.02
2023-05-04T01:53:36.560Z,97595.02
2023-05-04T01:56:08.683Z,97594.38
2023-05-04T01:58:41.103Z,97591.81
2023-05-04T02:01:14.208Z,97595.06
2023-05-04T02:03:51.903Z,97591.59
2023-05-04T02:06:23.631Z,97585.19
2023-05-04T02:08:57.508Z,97584.45
2023-05-04T02:11:32.038Z,97581.56
2023-05-04T02:14:03.741Z,97579.54
2023-05-04T02:16:38.083Z,97574.98
2023-05-04T02:19:09.597Z,97569.80
2023-05-04T02:21:42.226Z,97569.35
2023-05-04T02:24:16.578Z,97576.11
2023-05-04T02:26:48.014Z,97575.23
2023-05-04T02:29:20.402Z,97571.30
2023-05-04T02:31:53.066Z,97567.08
2023-05-04T02:34:24.460Z,97565.67
2023-05-04T02:36:57.436Z,97567.05
2023-05-04T02:39:30.423Z,97565.63
2023-05-04T02:42:00.862Z,97567.23
2023-05-04T02:44:32.004Z,97566.48
2023-05-04T02:47:04.892Z,97570.09
2023-05-04T02:49:36.889Z,97574.25
2023-05-04T02:52:07.982Z,97578.29
2023-05-04T02:54:38.902Z,97581.52
2023-05-04T02:57:09.986Z,97580.33
2023-05-04T02:59:43.489Z,97577.55
2023-05-04T03:02:14.770Z,97578.31
2023-05-04T03:04:46.032Z,97574.67
2023-05-04T03:07:17.030Z,97574.60
2023-05-04T03:09:50.922Z,97575.22
2023-05-04T03:12:23.207Z,97570.38
2023-05-04T03:14:53.544Z,97571.11
2023-05-04T03:17:25.066Z,97583.96
2023-05-04T03:19:56.438Z,97588.05
2023-05-04T03:22:29.281Z,97594.52
2023-05-04T03:24:59.702Z,97600.48
2023-05-04T03:27:32.982Z,97603.27
2023-05-04T03:30:03.831Z,97607.49
2023-05-04T03:32:35.411Z,97610.54
2023-05-04T03:37:53.904Z,97602.52
2023-05-04T03:40:25.631Z,97605.20
2023-05-04T03:42:56.589Z,97606.80
2023-05-04T03:45:29.329Z,97607.94
2023-05-04T03:48:01.057Z,97607.80
2023-05-04T03:50:33.012Z,97603.27
2023-05-04T03:53:03.409Z,97607.83
2023-05-04T03:55:33.576Z,97611.68
2023-05-04T03:58:03.776Z,97616.20
2023-05-04T04:00:33.792Z,97620.34
2023-05-04T04:03:07.827Z,97621.27
2023-05-04T04:05:37.408Z,97621.55
2023-05-04T04:08:07.310Z,97620.81
2023-05-04T04:10:36.831Z,97622.86
2023-05-04T04:13:07.743Z,97627.90
2023-05-04T04:15:37.167Z,97630.56
2023-05-04T04:18:06.676Z,97633.45
2023-05-04T04:20:36.679Z,97627.18
2023-05-04T04:23:06.362Z,97618.63
2023-05-04T04:25:36.019Z,97609.33
2023-05-04T04:28:05.698Z,97605.91
2023-05-04T04:30:35.089Z,97614.16
2023-05-04T04:33:05.395Z,97623.36
2023-05-04T04:35:34.758Z,97625.85
2023-05-04T04:38:04.391Z,97629.76
2023-05-04T04:40:34.058Z,97631.75
2023-05-04T04:43:04.080Z,97641.00
2023-05-04T04:45:33.886Z,97644.42
2023-05-04T04:48:04.196Z,97642.81
2023-05-04T04:50:33.539Z,97640.95
2023-05-04T04:53:02.843Z,97640.09
2023-05-04T04:55:31.821Z,97642.05
2023-05-04T04:58:01.020Z,97644.50
2023-05-04T05:00:30.603Z,97647.28
2023-05-04T05:02:59.803Z,97644.27
2023-05-04T05:05:31.673Z,97649.81
2023-05-04T05:08:01.415Z,97655.02
2023-05-04T05:10:31.430Z,97659.87
2023-05-04T05:13:00.685Z,97661.83
2023-05-04T05:15:30.190Z,97667.41
2023-05-04T05:17:59.461Z,97671.78
2023-05-04T05:20:29.110Z,97673.95
2023-05-04T05:22:58.719Z,97674.58
2023-05-04T05:25:28.823Z,97671.11
2023-05-04T05:27:57.925Z,97673.73
2023-05-04T05:30:29.043Z,97675.98
2023-05-04T05:32:58.521Z,97673.93
2023-05-04T05:35:27.682Z,97674.67
2023-05-04T05:37:56.440Z,97678.48
2023-05-04T05:40:25.648Z,97678.45
2023-05-04T05:42:54.337Z,97680.84
2023-05-04T05:45:23.540Z,97685.44
2023-05-04T05:47:52.877Z,97688.58
2023-05-04T05:50:23.884Z,97691.70
2023-05-04T05:52:52.864Z,97693.66
2023-05-04T05:55:22.078Z,97693.11
2023-05-04T05:57:51.155Z,97698.97
2023-05-04T06:00:21.212Z,97704.52
2023-05-04T06:02:50.214Z,97704.34
2023-05-04T06:05:19.160Z,97705.02
2023-05-04T06:07:49.148Z,97707.33
2023-05-04T06:10:19.644Z,97711.36
2023-05-04T06:12:48.950Z,97708.25
2023-05-04T06:15:18.925Z,97712.30
2023-05-04T06:17:49.540Z,97713.55
2023-05-04T06:20:18.750Z,97709.64
2023-05-04T06:22:48.051Z,97708.39
2023-05-04T06:25:17.046Z,97704.56
2023-05-04T06:27:46.345Z,97710.34
2023-05-04T06:30:16.813Z,97716.43
2023-05-04T06:32:45.920Z,97712.02
2023-05-04T06:35:15.661Z,97715.34
2023-05-04T06:37:44.657Z,97716.51
2023-05-04T06:40:15.927Z,97715.80
2023-05-04T06:42:45.008Z,97715.80
2023-05-04T06:45:13.910Z,97715.64
2023-05-04T06:47:42.932Z,97714.22
2023-05-04T06:50:12.201Z,97715.19
2023-05-04T06:52:44.069Z,97713.39
2023-05-04T06:55:14.366Z,97718.11
2023-05-04T06:57:43.544Z,97714.63
2023-05-04T07:00:13.111Z,97712.70
2023-05-04T07:02:41.871Z,97713.50
2023-05-04T07:05:11.326Z,97712.38
2023-05-04T07:07:40.770Z,97713.73
2023-05-04T07:10:11.243Z,97710.86
2023-05-04T07:12:40.126Z,97716.21
2023-05-04T07:15:10.762Z,97717.02
2023-05-04T07:17:40.687Z,97719.42
2023-05-04T07:20:10.953Z,97721.70
2023-05-04T07:22:40.159Z,97726.15
2023-05-04T07:25:09.860Z,97726.38
2023-05-04T07:27:39.165Z,97725.85
2023-05-04T07:30:08.865Z,97731.73
2023-05-04T07:32:37.855Z,97737.52
2023-05-04T07:35:07.105Z,97739.27
2023-05-04T07:37:36.572Z,97739.20
2023-05-04T07:40:08.037Z,97747.15
2023-05-04T07:42:37.709Z,97752.16
2023-05-04T07:45:08.975Z,97753.73
2023-05-04T07:47:37.989Z,97755.18
2023-05-04T07:50:07.586Z,97760.26
2023-05-04T07:52:37.279Z,97763.87
2023-05-04T07:55:07.192Z,97767.65
2023-05-04T07:57:38.322Z,97768.50
2023-05-04T08:00:11.186Z,97772.36
2023-05-04T08:02:43.231Z,97774.85
2023-05-04T08:05:12.885Z,97774.71
2023-05-04T08:07:42.093Z,97775.02
2023-05-04T08:10:11.300Z,97781.36
2023-05-04T08:12:41.442Z,97780.91
2023-05-04T08:15:10.933Z,97781.21
2023-05-04T08:17:41.071Z,97782.73
2023-05-04T08:20:10.428Z,97781.33
2023-05-04T08:22:39.894Z,97783.92
2023-05-04T08:25:09.855Z,97787.46
2023-05-04T08:27:38.447Z,97783.32
2023-05-04T08:30:08.914Z,97782.73
2023-05-04T08:32:37.835Z,97785.34
2023-05-04T08:35:08.400Z,97787.48
2023-05-04T08:37:38.326Z,97786.71
2023-05-04T08:40:07.659Z,97789.00
2023-05-04T08:42:37.100Z,97787.30
2023-05-04T08:45:07.796Z,97787.27
2023-05-04T08:47:36.837Z,97789.95
2023-05-04T08:50:08.425Z,97790.01
2023-05-04T08:52:41.531Z,97791.55
2023-05-04T08:55:12.631Z,97792.43
2023-05-04T08:57:44.116Z,97792.11
2023-05-04T09:00:16.893Z,97794.77
2023-05-04T09:02:47.563Z,97800.86
2023-05-04T09:05:17.103Z,97795.59
2023-05-04T09:07:47.839Z,97804.04
2023-05-04T09:10:17.109Z,97801.23
2023-05-04T09:12:46.966Z,97803.02
2023-05-04T09:15:17.924Z,97798.74
2023-05-04T09:18:04.017Z,97796.96
2023-05-04T09:20:45.568Z,97793.85
2023-05-04T09:23:16.107Z,97795.73
2023-05-04T09:25:53.828Z,97790.74
2023-05-04T09:28:39.633Z,97788.91
2023-05-04T09:31:09.133Z,97787.35
2023-05-04T09:33:38.356Z,97787.66
2023-05-04T09:36:21.387Z,97785.34
2023-05-04T09:38:50.482Z,97788.23
2023-05-04T09:41:20.596Z,97785.64
2023-05-04T09:43:51.122Z,97784.66
2023-05-04T09:46:20.704Z,97783.19
2023-05-04T09:48:57.220Z,97783.65
2023-05-04T09:51:27.935Z,97775.61
2023-05-04T09:54:02.663Z,97777.77
2023-05-04T09:56:42.309Z,97773.64
2023-05-04T09:59:11.611Z,97774.40
2023-05-04T10:01:42.801Z,97769.84
2023-05-04T10:04:14.934Z,97765.94
2023-05-04T10:06:45.442Z,97760.77
2023-05-04T10:09:16.216Z,97758.77
2023-05-04T10:11:45.171Z,97755.66
2023-05-04T10:14:13.857Z,97752.64
2023-05-04T10:17:26.129Z,97750.77
2023-05-04T10:20:31.201Z,97752.08
2023-05-04T10:23:15.148Z,97749.98
2023-05-04T10:25:47.408Z,97745.44
2023-05-04T10:28:34.021Z,97745.75
2023-05-04T10:31:04.850Z,97743.34
2023-05-04T10:33:41.265Z,97743.29
2023-05-04T10:36:13.039Z,97740.58
2023-05-04T10:38:42.582Z,97741.42
2023-05-04T10:41:19.007Z,97738.75
2023-05-04T10:43:53.876Z,97738.19
2023-05-04T10:46:24.243Z,97736.00
2023-05-04T10:48:53.122Z,97735.50
2023-05-04T10:51:32.632Z,97735.28
2023-05-04T10:54:05.628Z,97735.01
2023-05-04T10:56:34.433Z,97733.05
2023-05-04T10:59:15.191Z,97731.80
2023-05-04T11:01:47.648Z,97725.35
2023-05-04T11:04:42.562Z,97725.98
2023-05-04T11:07:18.441Z,97724.64
2023-05-04T11:09:47.599Z,97725.10
2023-05-04T11:12:23.969Z,97727.30
2023-05-04T11:14:53.336Z,97728.83
2023-05-04T11:17:28.455Z,97732.87
2023-05-04T11:19:57.808Z,97732.23
2023-05-04T11:22:27.633Z,97730.38
2023-05-04T11:24:56.617Z,97736.41
2023-05-04T11:27:26.577Z,97733.08
2023-05-04T11:30:01.055Z,97735.08
2023-05-04T11:32:39.785Z,97737.66
2023-05-04T11:35:14.805Z,97741.29
2023-05-04T11:37:44.668Z,97741.17
2023-05-04T11:40:14.424Z,97740.10
2023-05-04T11:42:46.096Z,97744.85
2023-05-04T11:45:23.993Z,97746.23
2023-05-04T11:47:53.984Z,97750.04
2023-05-04T11:50:23.196Z,97751.23
2023-05-04T11:52:52.497Z,97752.27
2023-05-04T11:55:29.409Z,97755.15
2023-05-04T11:58:02.564Z,97757.46
2023-05-04T12:00:38.940Z,97758.53
2023-05-04T12:03:10.606Z,97756.36
2023-05-04T12:05:40.407Z,97758.73
2023-05-04T12:08:12.677Z,97756.61
2023-05-04T12:10:43.423Z,97759.31
2023-05-04T12:13:18.613Z,97758.45
2023-05-04T12:15:47.740Z,97763.43
2023-05-04T12:18:23.696Z,97762.39
2023-05-04T12:20:52.884Z,97760.98
2023-05-04T12:23:21.476Z,97760.45
2023-05-04T12:25:58.252Z,97763.91
2023-05-04T12:28:28.054Z,97761.23
2023-05-04T12:30:57.973Z,97759.45
2023-05-04T12:33:26.901Z,97765.02
2023-05-04T12:35:55.654Z,97760.42
2023-05-04T12:38:25.844Z,97759.64
2023-05-04T12:40:56.050Z,97759.38
2023-05-04T12:43:25.708Z,97758.81
2023-05-04T12:45:54.829Z,97753.18
2023-05-04T12:48:23.478Z,97752.24
2023-05-04T12:50:52.680Z,97752.60
2023-05-04T12:53:28.581Z,97751.85
2023-05-04T12:55:57.630Z,97748.02
2023-05-04T12:58:26.434Z,97746.70
2023-05-04T13:00:56.404Z,97745.55
2023-05-04T13:03:24.985Z,97744.01
2023-05-04T13:05:54.414Z,97742.71
2023-05-04T13:08:24.037Z,97744.08
2023-05-04T13:10:52.932Z,97742.34
2023-05-04T13:13:24.646Z,97742.17
2023-05-04T13:15:53.829Z,97740.17
2023-05-04T13:18:27.284Z,97736.84
2023-05-04T13:20:57.190Z,97738.25
2023-05-04T13:23:27.624Z,97738.52
2023-05-04T13:25:56.187Z,97739.52
2023-05-04T13:28:24.876Z,97732.84
2023-05-04T13:30:53.872Z,97728.36
2023-05-04T13:35:58.632Z,97723.50
2023-05-04T13:38:28.836Z,97720.43
2023-05-04T13:41:00.805Z,97719.43
2023-05-04T13:43:29.606Z,97716.85
2023-05-04T13:46:04.520Z,97714.91
2023-05-04T13:48:34.222Z,97711.65
2023-05-04T13:51:04.209Z,97714.45
2023-05-04T13:53:33.246Z,97707.31
2023-05-04T13:56:02.033Z,97705.56
2023-05-04T13:58:30.819Z,97701.01
2023-05-04T14:01:03.269Z,97704.39
2023-05-04T14:03:32.864Z,97701.96
2023-05-04T14:06:02.069Z,97699.84
2023-05-04T14:08:30.990Z,97700.13
2023-05-04T14:11:00.194Z,97699.82
2023-05-04T14:13:28.865Z,97700.94
2023-05-04T14:15:58.579Z,97702.27
2023-05-04T14:18:28.841Z,97698.27
2023-05-04T14:20:58.090Z,97699.70
2023-05-04T14:23:27.291Z,97700.88
2023-05-04T14:25:58.753Z,97701.33
2023-05-04T14:28:27.653Z,97696.63
2023-05-04T14:30:57.958Z,97695.09
2023-05-04T14:33:28.798Z,97698.96
2023-05-04T14:35:57.785Z,97696.50
2023-05-04T14:38:28.935Z,97696.16
2023-05-04T14:40:57.717Z,97697.35
2023-05-04T14:43:26.504Z,97691.84
2023-05-04T14:45:57.054Z,97694.11
2023-05-04T14:48:27.807Z,97697.95
2023-05-04T14:50:57.575Z,97699.90
2023-05-04T14:53:27.396Z,97699.78
2023-05-04T14:55:56.085Z,97699.48
2023-05-04T14:58:24.779Z,97697.45
2023-05-04T15:00:53.967Z,97697.19
2023-05-04T15:03:22.830Z,97702.50
2023-05-04T15:05:51.742Z,97699.77
2023-05-04T15:08:20.432Z,97701.61
2023-05-04T15:10:49.322Z,97701.23
2023-05-04T15:13:18.527Z,97701.32
2023-05-04T15:15:47.149Z,97703.84
2023-05-04T15:18:16.308Z,97698.58
2023-05-04T15:20:45.601Z,97693.84
2023-05-04T15:23:16.753Z,97693.36
2023-05-04T15:25:45.629Z,97693.97
2023-05-04T15:28:14.312Z,97691.96
2023-05-04T15:30:43.206Z,97692.95
2023-05-04T15:33:11.795Z,97691.58
2023-05-04T15:35:40.887Z,97692.75
2023-05-04T15:38:09.776Z,97694.17
2023-05-04T15:40:38.358Z,97692.00
2023-05-04T15:43:07.145Z,97692.36
2023-05-04T15:45:36.140Z,97693.78
2023-05-04T15:48:05.480Z,97686.77
2023-05-04T15:50:34.534Z,97685.67
2023-05-04T15:53:03.623Z,97680.41
2023-05-04T15:55:32.577Z,97683.27
2023-05-04T15:58:02.025Z,97679.60
2023-05-04T16:00:30.813Z,97677.05
2023-05-04T16:03:01.439Z,97675.67
2023-05-04T16:05:30.022Z,97679.84
2023-05-04T16:07:59.328Z,97678.85
2023-05-04T16:10:28.529Z,97675.66
2023-05-04T16:12:57.517Z,97677.54
2023-05-04T16:15:26.409Z,97678.02
2023-05-04T16:17:55.220Z,97677.52
2023-05-04T16:20:24.273Z,97673.48
2023-05-04T16:22:52.883Z,97675.78
2023-05-04T16:25:21.558Z,97679.55
2023-05-04T16:27:50.561Z,97680.59
2023-05-04T16:30:19.443Z,97683.31
2023-05-04T16:32:48.047Z,97687.91
2023-05-04T16:35:17.324Z,97687.87
2023-05-04T16:37:45.927Z,97690.23
2023-05-04T16:40:16.040Z,97693.61
2023-05-04T16:42:45.953Z,97697.02
2023-05-04T16:45:14.876Z,97703.33
2023-05-04T16:47:44.775Z,97704.38
2023-05-04T16:50:14.536Z,97705.61
2023-05-04T16:52:43.682Z,97705.46
2023-05-04T16:55:12.808Z,97703.60
2023-05-04T16:57:41.846Z,97706.73
2023-05-04T17:00:12.055Z,97709.00
2023-05-04T17:02:40.754Z,97712.38
2023-05-04T17:05:10.846Z,97711.05
2023-05-04T17:07:43.753Z,97715.79
2023-05-04T17:10:13.476Z,97713.67
2023-05-04T17:12:42.780Z,97713.71
2023-05-04T17:15:12.479Z,97714.77
2023-05-04T17:17:41.832Z,97712.08
2023-05-04T17:20:15.229Z,97711.98
2023-05-04T17:22:44.366Z,97711.61
2023-05-04T17:25:13.888Z,97716.34
2023-05-04T17:27:44.103Z,97715.48
2023-05-04T17:30:13.623Z,97715.95
2023-05-04T17:32:42.438Z,97717.98
2023-05-04T17:35:23.453Z,97722.55
2023-05-04T17:37:58.898Z,97721.39
2023-05-04T17:40:28.515Z,97724.79
2023-05-04T17:42:57.707Z,97727.21
2023-05-04T17:45:26.772Z,97729.94
2023-05-04T17:47:55.841Z,97737.79
2023-05-04T17:50:25.831Z,97743.33
2023-05-04T17:52:58.110Z,97745.11
2023-05-04T17:55:28.011Z,97748.55
2023-05-04T17:57:56.887Z,97754.33
2023-05-04T18:00:25.573Z,97761.91
2023-05-04T18:02:54.536Z,97759.84
2023-05-04T18:05:23.356Z,97766.48
2023-05-04T18:07:52.360Z,97772.20
2023-05-04T18:10:21.235Z,97779.22
2023-05-04T18:12:50.154Z,97785.09
2023-05-04T18:15:19.634Z,97790.88
2023-05-04T18:17:50.902Z,97791.41
2023-05-04T18:20:19.665Z,97793.75
2023-05-04T18:22:48.248Z,97789.05
2023-05-04T18:25:17.033Z,97792.25
2023-05-04T18:27:46.335Z,97794.05
2023-05-04T18:30:15.226Z,97793.09
2023-05-04T18:32:43.981Z,97792.31
2023-05-04T18:35:12.703Z,97797.02
2023-05-04T18:37:41.382Z,97799.09
2023-05-04T18:40:12.953Z,97804.64
2023-05-04T18:42:41.636Z,97801.95
2023-05-04T18:45:11.644Z,97803.50
2023-05-04T18:47:40.360Z,97806.87
2023-05-04T18:50:10.034Z,97803.82
2023-05-04T18:52:38.731Z,97808.88
2023-05-04T18:55:08.347Z,97807.08
2023-05-04T18:57:36.920Z,97804.78
2023-05-04T19:00:09.557Z,97810.92
2023-05-04T19:02:38.429Z,97813.23
2023-05-04T19:05:07.682Z,97812.34
2023-05-04T19:07:37.201Z,97816.60
2023-05-04T19:10:07.054Z,97813.83
2023-05-04T19:12:36.647Z,97814.77
2023-05-04T19:15:06.525Z,97811.17
2023-05-04T19:17:35.640Z,97812.77
2023-05-04T19:20:04.735Z,97808.16
2023-05-04T19:22:33.492Z,97812.78
2023-05-04T19:25:02.182Z,97814.66
2023-05-04T19:27:31.189Z,97818.00
2023-05-04T19:30:00.077Z,97819.93
2023-05-04T19:32:33.377Z,97817.61
2023-05-04T19:35:02.249Z,97817.72
2023-05-04T19:37:31.134Z,97824.59
2023-05-04T19:40:00.230Z,97828.89
2023-05-04T19:42:28.918Z,97833.41
2023-05-04T19:44:57.915Z,97833.51
2023-05-04T19:47:28.769Z,97832.61
2023-05-04T19:49:57.740Z,97836.71
2023-05-04T19:52:26.425Z,97840.17
2023-05-04T19:54:55.111Z,97839.52
2023-05-04T19:57:23.692Z,97843.05
2023-05-04T19:59:52.581Z,97842.75
2023-05-04T20:02:21.324Z,97844.55
2023-05-04T20:04:50.055Z,97842.36
2023-05-04T20:07:18.764Z,97837.45
2023-05-04T20:09:47.629Z,97835.27
2023-05-04T20:12:16.636Z,97836.40
2023-05-04T20:14:45.336Z,97838.05
2023-05-04T20:17:14.106Z,97841.38
2023-05-04T20:19:43.401Z,97844.16
2023-05-04T20:22:12.280Z,97846.06
2023-05-04T20:24:41.486Z,97846.41
2023-05-04T20:27:10.374Z,97845.55
2023-05-04T20:29:39.056Z,97842.38
2023-05-04T20:32:09.303Z,97842.21
2023-05-04T20:34:40.034Z,97843.02
2023-05-04T20:37:09.171Z,97847.27
2023-05-04T20:39:37.825Z,97848.00
2023-05-04T20:42:07.196Z,97851.39
2023-05-04T20:44:35.887Z,97851.11
2023-05-04T20:47:05.080Z,97853.36
2023-05-04T20:49:34.085Z,97851.70
2023-05-04T20:52:03.489Z,97847.02
2023-05-04T20:54:32.369Z,97844.02
2023-05-04T20:57:01.859Z,97843.38
2023-05-04T20:59:31.507Z,97846.77
2023-05-04T21:02:00.159Z,97844.59
2023-05-04T21:04:29.668Z,97847.02
2023-05-04T21:06:58.473Z,97847.25
2023-05-04T21:09:28.281Z,97848.74
2023-05-04T21:11:56.951Z,97850.56
2023-05-04T21:14:26.271Z,97848.84
2023-05-04T21:16:55.360Z,97847.34
2023-05-04T21:19:24.655Z,97846.52
2023-05-04T21:21:53.954Z,97844.56
2023-05-04T21:24:23.656Z,97845.80
2023-05-04T21:26:52.861Z,97847.50
2023-05-04T21:29:22.279Z,97848.54
2023-05-04T21:31:52.095Z,97845.27
2023-05-04T21:34:21.590Z,97845.02
2023-05-04T21:36:50.775Z,97841.87
2023-05-04T21:39:20.592Z,97843.10
2023-05-04T21:41:50.002Z,97844.67
2023-05-04T21:44:19.001Z,97843.74
2023-05-04T21:46:48.462Z,97841.16
2023-05-04T21:49:18.004Z,97846.45
2023-05-04T21:51:47.189Z,97848.39
2023-05-04T21:54:16.292Z,97847.48
2023-05-04T21:56:45.289Z,97852.20
2023-05-04T21:59:14.820Z,97853.80
2023-05-04T22:01:43.572Z,97853.54
2023-05-04T22:04:12.686Z,97858.61
2023-05-04T22:06:41.760Z,97859.27
2023-05-04T22:09:11.471Z,97858.08
2023-05-04T22:11:41.612Z,97852.77
2023-05-04T22:14:11.566Z,97851.17
2023-05-04T22:16:41.880Z,97851.75
2023-05-04T22:19:11.138Z,97854.88
2023-05-04T22:21:40.785Z,97855.38
2023-05-04T22:24:10.557Z,97853.28
2023-05-04T22:26:41.427Z,97850.38
2023-05-04T22:29:11.374Z,97847.75
2023-05-04T22:31:41.996Z,97846.61
2023-05-04T22:34:11.336Z,97843.08
2023-05-04T22:36:42.297Z,97843.48
2023-05-04T22:39:11.486Z,97845.37
2023-05-04T22:41:40.572Z,97841.55
2023-05-04T22:44:09.975Z,97838.30
2023-05-04T22:46:40.882Z,97838.33
2023-05-04T22:49:09.904Z,97835.36
2023-05-04T22:51:41.396Z,97838.28
2023-05-04T22:54:13.064Z,97839.11
2023-05-04T22:56:42.820Z,97836.60
2023-05-04T22:59:12.454Z,97831.83
2023-05-04T23:01:43.853Z,97829.39
2023-05-04T23:04:14.193Z,97825.97
2023-05-04T23:06:44.535Z,97823.20
2023-05-04T23:09:15.147Z,97825.23
2023-05-04T23:11:45.549Z,97821.90
2023-05-04T23:14:19.791Z,97822.52
2023-05-04T23:16:49.307Z,97816.28
2023-05-04T23:19:20.106Z,97814.92
2023-05-04T23:21:52.522Z,97811.86
2023-05-04T23:24:22.934Z,97809.15
2023-05-04T23:26:53.992Z,97807.64
2023-05-04T23:29:24.334Z,97808.02
2023-05-04T23:31:54.599Z,97805.89
2023-05-04T23:34:25.059Z,97804.75
2023-05-04T23:36:56.553Z,97804.77
2023-05-04T23:39:27.876Z,97801.94
2023-05-04T23:41:57.971Z,97797.26
2023-05-04T23:44:28.466Z,97794.67
2023-05-04T23:46:59.869Z,97791.87
2023-05-04T23:49:30.756Z,97797.60
2023-05-04T23:52:01.222Z,97798.65
2023-05-04T23:54:34.435Z,97801.40
2023-05-04T23:57:09.060Z,97798.87
2023-05-04T23:59:39.429Z,97798.21
